Snedekerville, Pennsylvania
Current Conditions -  °F | °C
As of 12:53 AM on Thursday 23 Oct 2014 (Local Time) from KELM Reporting Station
Overcast Overcast  
Wind Chill: 44°   Ceiling: 2000
Heat Index: 49°   Visibility: 10mi
Dew Point: 42°   Wind: 12mph
Humidity: 77%   Direction: 360°N
Pressure: 30.02"   Gusts: 24mph
Location:  41.8495°N, 76.7925°W
Report Text: KELM 230453Z AUTO 36010G21KT 10SM OVC020 09/06 A3002 RMK AO2 SLP169 T00940056 401000083
Loading
Personal Weather Stations






























Interactive Weather Map
Tropical Storm Tracking
New forecast layout! Learn more

10-Day Weather Forecast

Advertisements
Track Severe Weather on mobile